Time;durP1;ratioP1;P1;durP2;ratioP2;P2;SDS_P1;SDS_P2;PMS_P1;PMS_P2;Temp;Humidity;BMP_temperature;BMP_pressure;BME280_temperature;BME280_humidity;BME280_pressure;Samples;Min_cycle;Max_cycle;Signal;HPM_P1;HPM_P2
2021/06/04 05:19:57;;;;;;;4.62;3.75;;;;;;;14.22;66.08;98782.75;1871056;76;24370;-64
2021/06/04 05:22:26;;;;;;;7.55;3.70;;;;;;;14.21;66.08;98781.14;1827734;77;20935;-64
2021/06/04 05:24:54;;;;;;;5.83;3.70;;;;;;;14.29;65.68;98785.87;1827800;78;20947;-64
2021/06/04 05:27:21;;;;;;;8.70;4.10;;;;;;;14.42;66.03;98785.12;1827877;78;21356;-64
2021/06/04 05:29:49;;;;;;;11.03;3.98;;;;;;;14.54;65.84;98780.06;1827832;78;20912;-64
2021/06/04 05:32:17;;;;;;;9.30;4.08;;;;;;;14.69;65.09;98789.24;1827915;78;21486;-64
2021/06/04 05:34:44;;;;;;;5.10;3.77;;;;;;;14.82;64.55;98788.45;1827844;78;21442;-64
2021/06/04 05:37:11;;;;;;;5.72;4.12;;;;;;;14.97;64.49;98783.32;1827809;78;21110;-62
2021/06/04 05:39:37;;;;;;;7.80;4.00;;;;;;;15.08;63.87;98789.56;1827827;78;20958;-64
2021/06/04 05:42:06;;;;;;;5.95;3.83;;;;;;;15.20;64.00;98792.30;1827803;78;20931;-64
2021/06/04 05:44:33;;;;;;;9.98;3.62;;;;;;;15.31;63.58;98796.41;1826677;77;20884;-63
2021/06/04 05:47:07;;;;;;;6.67;4.30;;;;;;;15.39;63.05;98798.39;1823887;78;21487;-65
2021/06/04 05:49:36;;;;;;;9.58;4.10;;;;;;;15.44;62.89;98790.19;1823427;78;21479;-65
2021/06/04 05:52:08;;;;;;;8.53;3.77;;;;;;;15.48;61.70;98785.80;1823475;78;20881;-63
2021/06/04 05:54:33;;;;;;;10.30;3.90;;;;;;;15.53;61.83;98783.00;1823584;78;20913;-64
2021/06/04 05:57:00;;;;;;;6.35;3.70;;;;;;;15.61;61.56;98782.30;1823703;78;21520;-64
2021/06/04 05:59:27;;;;;;;7.28;3.75;;;;;;;15.71;61.65;98779.34;1823814;78;20992;-64
2021/06/04 06:01:55;;;;;;;13.08;3.67;;;;;;;15.83;61.73;98776.91;1830722;77;20943;-62
2021/06/04 06:04:22;;;;;;;7.12;3.75;;;;;;;15.97;61.22;98780.37;1836746;77;21010;-64
2021/06/04 06:06:52;;;;;;;7.85;4.28;;;;;;;16.06;60.83;98779.88;1826094;78;21489;-64
2021/06/04 06:09:23;;;;;;;6.03;3.52;;;;;;;16.17;61.31;98779.90;1826157;78;21046;-63
2021/06/04 06:11:50;;;;;;;5.80;3.50;;;;;;;16.30;60.90;98777.67;1826353;78;21022;-63
2021/06/04 06:14:17;;;;;;;6.65;3.60;;;;;;;16.43;60.62;98782.22;1826365;78;21098;-64
2021/06/04 06:16:45;;;;;;;7.55;3.42;;;;;;;16.57;60.05;98788.13;1826132;78;21054;-62
2021/06/04 06:19:15;;;;;;;9.90;3.85;;;;;;;16.73;59.75;98797.44;1818242;78;20974;-64
2021/06/04 06:21:45;;;;;;;9.30;3.85;;;;;;;16.86;59.08;98793.28;1812848;79;20876;-63
2021/06/04 06:24:12;;;;;;;17.27;4.58;;;;;;;17.02;59.03;98792.33;1777916;80;20946;-63
2021/06/04 06:26:39;;;;;;;5.83;3.55;;;;;;;17.21;59.41;98791.53;1776959;80;21122;-62
2021/06/04 06:29:09;;;;;;;8.15;3.50;;;;;;;17.39;57.79;98789.09;1777619;80;20908;-63
2021/06/04 06:31:39;;;;;;;4.78;3.70;;;;;;;17.53;57.68;98795.21;1777283;80;20923;-63
2021/06/04 06:34:06;;;;;;;7.03;3.65;;;;;;;17.62;56.78;98800.63;1775937;80;20896;-63
2021/06/04 06:36:35;;;;;;;9.03;4.30;;;;;;;17.62;56.94;98806.05;1765159;81;21393;-62
2021/06/04 06:39:08;;;;;;;16.48;4.70;;;;;;;17.61;57.18;98802.57;1765842;80;21253;-63
2021/06/04 06:41:35;;;;;;;8.95;4.40;;;;;;;17.54;57.39;98800.08;1765831;81;20972;-64
2021/06/04 06:44:02;;;;;;;13.22;4.90;;;;;;;17.46;57.51;98807.03;1765989;80;20921;-63
2021/06/04 06:46:30;;;;;;;12.43;5.10;;;;;;;17.44;57.41;98805.20;1765937;80;21448;-66
2021/06/04 06:48:59;;;;;;;16.70;4.95;;;;;;;17.41;57.73;98804.47;1766006;80;20980;-65
2021/06/04 06:51:26;;;;;;;9.85;4.42;;;;;;;17.46;58.23;98793.50;1766042;80;21491;-65
2021/06/04 06:53:57;;;;;;;11.20;4.10;;;;;;;17.54;58.67;98796.82;1765795;80;20987;-65
2021/06/04 06:56:25;;;;;;;8.45;4.55;;;;;;;17.63;58.60;98794.92;1765837;80;20929;-65
2021/06/04 06:58:52;;;;;;;7.87;4.00;;;;;;;17.71;57.63;98791.98;1766026;81;21396;-64
2021/06/04 07:01:19;;;;;;;6.83;4.00;;;;;;;17.80;57.68;98783.31;1765991;81;20912;-64
2021/06/04 07:03:46;;;;;;;7.53;4.03;;;;;;;17.91;56.96;98785.12;1765933;80;21873;-64
2021/06/04 07:06:20;;;;;;;5.10;3.50;;;;;;;18.03;56.16;98789.36;1765842;81;20962;-64
2021/06/04 07:08:47;;;;;;;6.03;3.30;;;;;;;18.13;55.61;98787.14;1764610;81;20976;-61
2021/06/04 07:11:16;;;;;;;11.55;3.50;;;;;;;18.23;54.83;98781.36;1765689;80;21068;-63
2021/06/04 07:13:45;;;;;;;6.55;3.52;;;;;;;18.28;53.89;98787.17;1765974;81;20966;-65
2021/06/04 07:16:12;;;;;;;12.63;3.55;;;;;;;18.31;53.22;98786.55;1766117;80;21740;-63
2021/06/04 07:18:39;;;;;;;9.35;3.83;;;;;;;18.37;53.72;98794.77;1770409;80;20900;-63
2021/06/04 07:21:07;;;;;;;7.95;3.50;;;;;;;18.46;53.85;98790.16;1785572;80;21466;-64
2021/06/04 07:23:34;;;;;;;12.60;3.90;;;;;;;18.58;54.17;98798.43;1785268;80;20962;-63
2021/06/04 07:26:02;;;;;;;10.72;4.03;;;;;;;18.71;52.66;98793.36;1785387;80;20991;-63
2021/06/04 07:28:31;;;;;;;10.05;3.75;;;;;;;18.76;52.38;98793.19;1785465;80;21960;-66
2021/06/04 07:31:00;;;;;;;7.10;3.77;;;;;;;18.81;52.14;98788.94;1785147;80;20927;-62
2021/06/04 07:33:32;;;;;;;5.70;3.37;;;;;;;18.90;52.19;98793.78;1785639;80;20919;-64
2021/06/04 07:36:03;;;;;;;10.93;3.08;;;;;;;19.02;51.35;98796.61;1785416;80;20971;-64
2021/06/04 07:38:30;;;;;;;8.68;3.58;;;;;;;19.19;50.89;98794.94;1785631;80;20891;-63
2021/06/04 07:40:59;;;;;;;7.83;3.15;;;;;;;19.35;50.85;98795.41;1785326;80;21126;-63
2021/06/04 07:43:29;;;;;;;12.68;4.65;;;;;;;19.51;49.43;98790.23;1785798;80;20895;-63
2021/06/04 07:45:56;;;;;;;11.78;3.27;;;;;;;19.63;49.98;98795.19;1785322;80;20978;-63
2021/06/04 07:48:24;;;;;;;6.00;3.50;;;;;;;19.71;49.83;98798.98;1785484;80;20848;-64
2021/06/04 07:50:53;;;;;;;5.95;2.90;;;;;;;19.78;49.76;98791.10;1785307;80;20836;-63
2021/06/04 07:53:27;;;;;;;9.28;2.92;;;;;;;19.89;49.18;98793.65;1785378;80;21939;-64
2021/06/04 07:55:54;;;;;;;8.58;3.08;;;;;;;19.96;48.36;98788.47;1784810;80;20923;-64
2021/06/04 07:58:21;;;;;;;5.08;2.90;;;;;;;20.02;47.89;98787.13;1785811;80;21287;-63
2021/06/04 08:00:48;;;;;;;12.80;3.37;;;;;;;20.04;46.75;98788.98;1785303;80;20958;-64
2021/06/04 08:03:17;;;;;;;4.28;2.22;;;;;;;20.06;46.80;98793.52;1786233;78;20954;-64
2021/06/04 08:05:52;;;;;;;3.30;2.60;;;;;;;20.09;46.04;98788.75;1825114;77;21266;-65
2021/06/04 08:08:19;;;;;;;;;;;;;;;20.16;46.65;98792.31;1806914;77;21499;-62
2021/06/04 08:10:47;;;;;;;8.98;3.00;;;;;;;20.23;46.70;98787.94;1787570;77;20115;-64
2021/06/04 08:13:19;;;;;;;5.90;3.30;;;;;;;20.28;46.01;98793.17;1783302;79;21063;-65
2021/06/04 08:15:56;;;;;;;9.00;3.15;;;;;;;20.31;45.72;98784.91;1790311;77;21070;-61
2021/06/04 08:18:25;;;;;;;9.35;3.15;;;;;;;20.35;47.13;98786.63;1769613;79;21033;-62
2021/06/04 08:20:52;;;;;;;3.62;2.87;;;;;;;20.41;45.16;98780.42;1767680;80;21489;-61
2021/06/04 08:23:27;;;;;;;5.00;2.90;;;;;;;20.40;45.68;98776.91;1776087;80;21105;-61
2021/06/04 08:25:57;;;;;;;4.83;2.80;;;;;;;20.43;45.17;98776.23;1776841;80;21553;-62
2021/06/04 08:28:25;;;;;;;11.20;2.95;;;;;;;20.50;45.48;98781.13;1807424;78;20884;-63
2021/06/04 08:30:52;;;;;;;8.93;2.95;;;;;;;20.59;44.50;98776.95;1814319;78;21490;-63
2021/06/04 08:33:25;;;;;;;7.22;2.65;;;;;;;20.68;44.74;98772.23;1814350;77;20963;-63
2021/06/04 08:35:51;;;;;;;7.37;2.70;;;;;;;20.76;43.68;98764.52;1777380;80;21434;-64
2021/06/04 08:38:19;;;;;;;10.38;2.60;;;;;;;20.85;42.68;98767.36;1779200;80;20939;-65
2021/06/04 08:40:46;;;;;;;7.30;2.05;;;;;;;20.95;42.91;98756.59;1755790;80;21058;-62
2021/06/04 08:43:56;;;;;;;3.00;1.80;;;;;;;21.08;40.98;98760.93;1748336;82;21100;-63
2021/06/04 08:46:37;;;;;;;5.65;2.25;;;;;;;21.20;40.51;98763.66;1748392;82;20919;-63
2021/06/04 08:49:51;;;;;;;5.30;2.30;;;;;;;21.38;39.53;98752.77;1749588;82;20920;-62
2021/06/04 08:52:59;;;;;;;4.78;2.37;;;;;;;21.50;39.58;98755.48;1747908;82;20955;-63
2021/06/04 08:55:46;;;;;;;4.12;1.75;;;;;;;21.62;39.92;98761.48;1749566;82;21504;-62
2021/06/04 08:59:03;;;;;;;6.55;2.17;;;;;;;21.62;39.07;98759.53;1749502;82;21096;-66
2021/06/04 09:01:36;;;;;;;;;;;;;;;21.59;39.25;98754.78;1791991;79;21418;-62
2021/06/04 09:04:13;;;;;;;9.68;2.33;;;;;;;21.65;38.43;98752.03;1799981;78;20076;-63
2021/06/04 09:06:53;;;;;;;7.20;2.33;;;;;;;21.76;38.97;98746.31;1809221;77;20936;-64
2021/06/04 09:09:37;;;;;;;3.67;1.77;;;;;;;21.84;37.73;98739.17;1789508;79;20833;-64
2021/06/04 09:12:20;;;;;;;6.12;1.60;;;;;;;21.94;37.88;98743.34;1748896;82;21258;-64
2021/06/04 09:14:49;;;;;;;4.47;1.50;;;;;;;22.17;35.79;98740.30;1725563;82;21466;-62
2021/06/04 09:17:29;;;;;;;3.62;1.65;;;;;;;22.34;34.64;98733.17;1789349;79;20927;-63
2021/06/04 09:20:15;;;;;;;4.37;1.60;;;;;;;22.48;34.94;98740.38;1787464;80;20994;-62
2021/06/04 09:22:47;;;;;;;4.30;1.62;;;;;;;22.72;36.26;98747.09;1786782;80;20883;-65
2021/06/04 09:25:28;;;;;;;4.12;1.70;;;;;;;22.99;35.45;98735.27;1786419;79;22069;-63
2021/06/04 09:28:21;;;;;;;6.67;1.70;;;;;;;23.06;33.86;98738.17;1805082;79;20894;-61
2021/06/04 09:31:18;;;;;;;6.58;1.70;;;;;;;22.80;33.64;98742.01;1804888;79;21479;-64
2021/06/04 09:33:56;;;;;;;3.45;1.52;;;;;;;22.42;35.14;98741.78;1795170;79;20965;-65
2021/06/04 09:36:46;;;;;;;4.10;1.63;;;;;;;22.11;35.23;98743.06;1804047;79;21076;-65
2021/06/04 09:39:36;;;;;;;10.08;2.05;;;;;;;21.92;35.54;98737.45;1779332;79;21215;-63
2021/06/04 09:42:09;;;;;;;5.28;1.90;;;;;;;21.73;36.31;98746.23;1777810;79;21084;-65
2021/06/04 09:44:37;;;;;;;4.85;1.85;;;;;;;21.61;36.66;98747.05;1786633;78;21004;-64
2021/06/04 09:47:39;;;;;;;5.00;1.50;;;;;;;21.56;36.94;98736.38;1782769;78;21464;-62
2021/06/04 09:50:32;;;;;;;8.70;2.30;;;;;;;21.54;37.25;98737.86;1798982;78;21084;-66
2021/06/04 09:53:11;;;;;;;6.30;2.20;;;;;;;21.62;38.26;98737.72;1736378;79;21832;-64
2021/06/04 09:55:45;;;;;;;4.72;1.80;;;;;;;21.96;37.98;98732.88;1793184;79;21376;-63
2021/06/04 09:58:20;;;;;;;7.17;2.10;;;;;;;22.25;36.86;98725.72;1787332;78;20921;-66
2021/06/04 10:01:04;;;;;;;3.52;1.75;;;;;;;22.42;36.66;98725.41;1791685;78;20942;-63
2021/06/04 10:03:47;;;;;;;12.40;2.25;;;;;;;22.43;35.33;98731.07;1773147;81;20929;-65
2021/06/04 10:06:36;;;;;;;6.50;2.15;;;;;;;22.31;36.55;98731.94;1796538;79;21258;-62
2021/06/04 10:09:28;;;;;;;8.15;1.75;;;;;;;22.16;36.22;98731.91;1802377;78;21057;-65
2021/06/04 10:12:06;;;;;;;5.80;2.15;;;;;;;21.90;36.71;98738.38;1772463;81;21240;-65
2021/06/04 10:14:52;;;;;;;8.10;2.05;;;;;;;21.72;36.88;98740.53;1779925;78;20984;-66
2021/06/04 10:17:46;;;;;;;7.42;1.98;;;;;;;21.62;37.13;98739.67;1782388;78;21016;-63
2021/06/04 10:20:34;;;;;;;8.65;2.15;;;;;;;21.59;36.54;98735.70;1808124;77;21125;-63
2021/06/04 10:23:31;;;;;;;2.58;1.80;;;;;;;21.57;36.34;98734.45;1779603;80;20876;-64
2021/06/04 10:26:05;;;;;;;2.42;1.62;;;;;;;21.59;37.56;98735.70;1780815;80;20991;-62
2021/06/04 10:28:49;;;;;;;3.47;1.70;;;;;;;21.73;36.79;98736.13;1758499;80;20970;-62
2021/06/04 10:31:40;;;;;;;4.05;1.92;;;;;;;21.90;36.48;98732.91;1789521;79;21549;-62
2021/06/04 10:34:59;;;;;;;4.72;1.98;;;;;;;21.97;37.00;98733.12;1789536;79;21117;-62
2021/06/04 10:38:16;;;;;;;6.00;1.90;;;;;;;22.10;36.81;98733.28;1789527;80;20959;-64
2021/06/04 10:40:49;;;;;;;4.35;1.60;;;;;;;22.21;35.32;98728.34;1818073;78;20933;-64
2021/06/04 10:43:33;;;;;;;3.42;1.77;;;;;;;22.44;35.79;98719.82;1806609;78;20931;-65
2021/06/04 10:46:42;;;;;;;1.60;1.43;;;;;;;22.69;35.43;98723.77;1789878;79;20948;-66
2021/06/04 10:49:32;;;;;;;5.67;1.60;;;;;;;22.79;35.40;98725.42;1789538;80;21115;-62
2021/06/04 10:52:32;;;;;;;3.35;1.60;;;;;;;22.70;34.83;98733.00;1789485;80;20963;-62
2021/06/04 10:55:29;;;;;;;6.70;1.90;;;;;;;22.49;35.21;98728.33;1789494;80;20959;-62
2021/06/04 10:58:22;;;;;;;9.33;1.70;;;;;;;22.27;35.41;98724.80;1811983;78;21018;-63
2021/06/04 11:00:56;;;;;;;5.60;1.50;;;;;;;22.05;35.99;98727.50;1741183;82;20915;-66
2021/06/04 11:04:08;;;;;;;3.98;1.65;;;;;;;21.85;35.11;98727.70;1771138;80;21063;-64
2021/06/04 11:06:58;;;;;;;4.97;1.77;;;;;;;21.71;35.72;98723.41;1760806;81;20954;-62
2021/06/04 11:09:58;;;;;;;4.08;1.60;;;;;;;21.64;36.09;98727.30;1704521;83;20904;-64
2021/06/04 11:12:52;;;;;;;6.15;1.80;;;;;;;21.70;36.46;98723.73;1740967;82;20995;-64
2021/06/04 11:15:36;;;;;;;3.35;1.60;;;;;;;21.80;35.22;98717.24;1807064;78;20916;-62
2021/06/04 11:18:17;;;;;;;2.70;1.70;;;;;;;21.93;35.86;98712.55;1801773;78;21344;-63
2021/06/04 11:20:53;;;;;;;4.20;1.70;;;;;;;22.04;34.91;98710.13;1819105;78;20907;-64
2021/06/04 11:23:31;;;;;;;6.92;1.98;;;;;;;22.25;35.52;98709.34;1811547;78;20880;-64
2021/06/04 11:26:08;;;;;;;5.03;1.60;;;;;;;22.65;35.99;98701.85;1754745;81;21417;-66
2021/06/04 11:29:03;;;;;;;5.40;1.62;;;;;;;23.19;34.90;98701.98;1729529;81;20991;-65
2021/06/04 11:31:59;;;;;;;3.58;1.60;;;;;;;23.70;34.71;98693.95;1756782;81;21129;-65
2021/06/04 11:35:01;;;;;;;9.28;2.05;;;;;;;24.17;33.51;98699.22;1758700;80;21251;-63
2021/06/04 11:37:58;;;;;;;5.90;2.22;;;;;;;24.30;32.81;98697.12;1782411;80;21038;-66
2021/06/04 11:40:33;;;;;;;5.03;2.02;;;;;;;24.05;33.32;98707.55;1788562;80;21478;-62
2021/06/04 11:43:28;;;;;;;6.28;1.75;;;;;;;23.72;33.28;98700.42;1788970;80;20958;-63
2021/06/04 11:46:21;;;;;;;5.60;1.70;;;;;;;23.51;34.33;98699.41;1788759;80;21174;-62
2021/06/04 11:49:03;;;;;;;5.90;1.50;;;;;;;23.66;33.91;98693.67;1787186;80;20974;-64
2021/06/04 11:51:47;;;;;;;4.53;1.42;;;;;;;24.09;33.22;98682.47;1786918;80;21020;-59
2021/06/04 11:54:26;;;;;;;6.12;1.80;;;;;;;24.53;31.74;98679.33;1784110;79;21057;-62
2021/06/04 11:57:08;;;;;;;4.12;1.40;;;;;;;24.90;31.59;98677.62;1784378;80;21110;-61
2021/06/04 11:59:51;;;;;;;3.17;1.40;;;;;;;24.97;31.59;98685.95;1741963;80;21194;-62
2021/06/04 12:02:38;;;;;;;6.22;1.70;;;;;;;24.96;31.85;98680.27;1774042;80;21019;-65
2021/06/04 12:05:22;;;;;;;5.17;1.90;;;;;;;24.88;31.87;98679.36;1780335;80;20935;-64
2021/06/04 12:08:15;;;;;;;6.62;1.55;;;;;;;25.04;32.22;98685.48;1772503;80;20983;-66
2021/06/04 12:10:56;;;;;;;5.72;1.85;;;;;;;25.25;32.26;98685.00;1777056;80;21037;-62
2021/06/04 12:13:40;;;;;;;8.03;1.70;;;;;;;25.25;32.26;98685.00;1777391;80;21114;-63
2021/06/04 12:16:30;;;;;;;2.08;1.50;;;;;;;24.90;31.62;98691.31;1776639;80;21063;-60
2021/06/04 12:19:02;;;;;;;4.83;1.65;;;;;;;24.50;32.10;98695.91;1777910;80;21050;-65
2021/06/04 12:21:51;;;;;;;4.00;1.80;;;;;;;24.13;32.05;98695.63;1777828;80;21010;-64
2021/06/04 12:24:35;;;;;;;5.62;1.82;;;;;;;23.89;32.69;98692.36;1779463;80;20971;-62
2021/06/04 12:27:16;;;;;;;4.60;1.70;;;;;;;23.63;33.31;98698.48;1779580;80;21120;-63
2021/06/04 12:29:50;;;;;;;7.45;1.70;;;;;;;23.32;33.72;98694.47;1779565;80;20861;-62
2021/06/04 12:32:19;;;;;;;5.25;1.60;;;;;;;23.12;35.70;98697.16;1778730;80;21023;-64
2021/06/04 12:34:51;;;;;;;3.17;1.60;;;;;;;23.03;33.85;98695.16;1778269;80;21106;-63
2021/06/04 12:37:28;;;;;;;8.70;2.00;;;;;;;23.06;33.97;98690.36;1778776;80;21044;-61
2021/06/04 12:40:27;;;;;;;4.92;1.50;;;;;;;23.41;34.45;98688.25;1778154;80;21132;-63
